sensor_id;sensor_type;location;lat;lon;timestamp;pressure;altitude;pressure_sealevel;temperature;humidity
63019;BME280;49105;46.046;10.760;2023-09-30T00:01:55;96367.25;;;14.75;80.24
63019;BME280;49105;46.046;10.760;2023-09-30T00:04:21;96372.59;;;14.75;80.25
63019;BME280;49105;46.046;10.760;2023-09-30T00:06:47;96370.22;;;14.74;80.28
63019;BME280;49105;46.046;10.760;2023-09-30T00:09:13;96375.69;;;14.58;80.31
63019;BME280;49105;46.046;10.760;2023-09-30T00:11:39;96366.75;;;14.39;80.35
63019;BME280;49105;46.046;10.760;2023-09-30T00:14:06;96375.00;;;14.37;80.84
63019;BME280;49105;46.046;10.760;2023-09-30T00:16:32;96375.47;;;14.50;80.66
63019;BME280;49105;46.046;10.760;2023-09-30T00:18:58;96370.09;;;14.55;80.43
63019;BME280;49105;46.046;10.760;2023-09-30T00:21:24;96365.81;;;14.59;80.20
63019;BME280;49105;46.046;10.760;2023-09-30T00:23:50;96371.38;;;14.62;80.33
63019;BME280;49105;46.046;10.760;2023-09-30T00:26:16;96363.88;;;14.64;79.89
63019;BME280;49105;46.046;10.760;2023-09-30T00:28:42;96373.19;;;14.67;80.27
63019;BME280;49105;46.046;10.760;2023-09-30T00:31:08;96382.03;;;14.62;80.15
63019;BME280;49105;46.046;10.760;2023-09-30T00:33:37;96377.84;;;14.51;80.27
63019;BME280;49105;46.046;10.760;2023-09-30T00:36:09;96386.94;;;14.45;80.80
63019;BME280;49105;46.046;10.760;2023-09-30T00:38:36;96387.50;;;14.42;80.46
63019;BME280;49105;46.046;10.760;2023-09-30T00:41:03;96388.84;;;14.39;80.32
63019;BME280;49105;46.046;10.760;2023-09-30T00:43:29;96387.78;;;14.40;80.57
63019;BME280;49105;46.046;10.760;2023-09-30T00:48:44;96377.63;;;14.43;80.79
63019;BME280;49105;46.046;10.760;2023-09-30T00:51:11;96370.69;;;14.47;80.54
63019;BME280;49105;46.046;10.760;2023-09-30T00:53:36;96366.16;;;14.47;80.42
63019;BME280;49105;46.046;10.760;2023-09-30T00:56:03;96362.41;;;14.48;80.42
63019;BME280;49105;46.046;10.760;2023-09-30T00:58:29;96360.19;;;14.26;80.12
63019;BME280;49105;46.046;10.760;2023-09-30T01:00:56;96364.28;;;14.13;80.99
63019;BME280;49105;46.046;10.760;2023-09-30T01:03:24;96366.69;;;14.10;81.21
63019;BME280;49105;46.046;10.760;2023-09-30T01:05:49;96350.97;;;14.13;81.10
63019;BME280;49105;46.046;10.760;2023-09-30T01:08:16;96362.59;;;14.23;80.81
63019;BME280;49105;46.046;10.760;2023-09-30T01:10:42;96364.97;;;14.29;80.91
63019;BME280;49105;46.046;10.760;2023-09-30T01:13:09;96363.84;;;14.35;80.70
63019;BME280;49105;46.046;10.760;2023-09-30T01:15:34;96356.09;;;14.39;80.45
63019;BME280;49105;46.046;10.760;2023-09-30T01:18:01;96365.50;;;14.26;80.51
63019;BME280;49105;46.046;10.760;2023-09-30T01:20:27;96357.59;;;14.16;81.08
63019;BME280;49105;46.046;10.760;2023-09-30T01:22:53;96360.31;;;14.06;80.52
63019;BME280;49105;46.046;10.760;2023-09-30T01:25:20;96361.69;;;13.98;80.94
63019;BME280;49105;46.046;10.760;2023-09-30T01:27:46;96352.66;;;13.99;81.44
63019;BME280;49105;46.046;10.760;2023-09-30T01:30:13;96349.19;;;14.04;81.06
63019;BME280;49105;46.046;10.760;2023-09-30T01:32:39;96348.34;;;14.08;81.49
63019;BME280;49105;46.046;10.760;2023-09-30T01:35:05;96342.47;;;14.11;81.04
63019;BME280;49105;46.046;10.760;2023-09-30T01:37:31;96348.38;;;14.03;80.84
63019;BME280;49105;46.046;10.760;2023-09-30T01:39:57;96353.47;;;13.95;81.26
63019;BME280;49105;46.046;10.760;2023-09-30T01:42:23;96363.59;;;13.93;80.88
63019;BME280;49105;46.046;10.760;2023-09-30T01:44:50;96364.72;;;13.81;81.28
63019;BME280;49105;46.046;10.760;2023-09-30T01:47:16;96359.44;;;13.76;81.56
63019;BME280;49105;46.046;10.760;2023-09-30T01:49:42;96362.63;;;13.78;81.32
63019;BME280;49105;46.046;10.760;2023-09-30T01:52:08;96360.44;;;13.85;81.47
63019;BME280;49105;46.046;10.760;2023-09-30T01:54:34;96356.94;;;13.95;81.03
63019;BME280;49105;46.046;10.760;2023-09-30T01:57:00;96346.78;;;14.02;80.86
63019;BME280;49105;46.046;10.760;2023-09-30T01:59:26;96348.69;;;13.97;80.49
63019;BME280;49105;46.046;10.760;2023-09-30T02:01:53;96351.44;;;13.81;80.88
63019;BME280;49105;46.046;10.760;2023-09-30T02:04:18;96351.97;;;13.78;80.86
63019;BME280;49105;46.046;10.760;2023-09-30T02:06:44;96352.22;;;13.82;80.85
63019;BME280;49105;46.046;10.760;2023-09-30T02:09:11;96346.34;;;13.85;80.86
63019;BME280;49105;46.046;10.760;2023-09-30T02:11:36;96345.25;;;13.91;81.23
63019;BME280;49105;46.046;10.760;2023-09-30T02:14:03;96353.50;;;13.89;80.77
63019;BME280;49105;46.046;10.760;2023-09-30T02:16:31;96346.06;;;13.86;80.79
63019;BME280;49105;46.046;10.760;2023-09-30T02:18:58;96348.47;;;13.88;81.04
63019;BME280;49105;46.046;10.760;2023-09-30T02:21:24;96360.50;;;13.80;80.78
63019;BME280;49105;46.046;10.760;2023-09-30T02:23:49;96362.97;;;13.61;81.58
63019;BME280;49105;46.046;10.760;2023-09-30T02:26:20;96357.97;;;13.55;81.52
63019;BME280;49105;46.046;10.760;2023-09-30T02:28:45;96355.53;;;13.63;81.75
63019;BME280;49105;46.046;10.760;2023-09-30T02:31:11;96346.19;;;13.71;81.14
63019;BME280;49105;46.046;10.760;2023-09-30T02:33:37;96351.47;;;13.76;81.13
63019;BME280;49105;46.046;10.760;2023-09-30T02:36:07;96347.16;;;13.85;80.88
63019;BME280;49105;46.046;10.760;2023-09-30T02:38:34;96347.63;;;13.93;80.67
63019;BME280;49105;46.046;10.760;2023-09-30T02:41:00;96362.56;;;13.88;80.39
63019;BME280;49105;46.046;10.760;2023-09-30T02:43:27;96356.75;;;13.81;81.24
63019;BME280;49105;46.046;10.760;2023-09-30T02:45:53;96343.97;;;13.83;80.75
63019;BME280;49105;46.046;10.760;2023-09-30T02:48:19;96348.19;;;13.89;80.82
63019;BME280;49105;46.046;10.760;2023-09-30T02:50:46;96345.81;;;13.88;80.76
63019;BME280;49105;46.046;10.760;2023-09-30T02:53:12;96342.88;;;13.89;81.26
63019;BME280;49105;46.046;10.760;2023-09-30T02:55:41;96342.31;;;13.93;80.58
63019;BME280;49105;46.046;10.760;2023-09-30T02:58:08;96343.25;;;13.68;80.45
63019;BME280;49105;46.046;10.760;2023-09-30T03:00:37;96344.16;;;13.48;80.96
63019;BME280;49105;46.046;10.760;2023-09-30T03:03:03;96344.44;;;13.46;80.98
63019;BME280;49105;46.046;10.760;2023-09-30T03:05:29;96347.31;;;13.55;80.99
63019;BME280;49105;46.046;10.760;2023-09-30T03:07:59;96345.69;;;13.64;80.83
63019;BME280;49105;46.046;10.760;2023-09-30T03:10:26;96335.28;;;13.68;81.30
63019;BME280;49105;46.046;10.760;2023-09-30T03:12:58;96353.69;;;13.59;80.86
63019;BME280;49105;46.046;10.760;2023-09-30T03:15:27;96351.06;;;13.54;81.08
63019;BME280;49105;46.046;10.760;2023-09-30T03:17:53;96347.91;;;13.47;81.19
63019;BME280;49105;46.046;10.760;2023-09-30T03:20:21;96348.75;;;13.32;80.98
63019;BME280;49105;46.046;10.760;2023-09-30T03:22:47;96359.94;;;13.19;81.31
63019;BME280;49105;46.046;10.760;2023-09-30T03:25:14;96353.81;;;13.18;81.65
63019;BME280;49105;46.046;10.760;2023-09-30T03:27:43;96351.69;;;13.30;81.47
63019;BME280;49105;46.046;10.760;2023-09-30T03:30:09;96353.25;;;13.36;80.79
63019;BME280;49105;46.046;10.760;2023-09-30T03:32:38;96348.72;;;13.42;80.95
63019;BME280;49105;46.046;10.760;2023-09-30T03:35:07;96352.69;;;13.45;81.16
63019;BME280;49105;46.046;10.760;2023-09-30T03:37:33;96358.78;;;13.45;81.26
63019;BME280;49105;46.046;10.760;2023-09-30T03:40:00;96354.25;;;13.51;80.79
63019;BME280;49105;46.046;10.760;2023-09-30T03:42:28;96349.97;;;13.55;80.98
63019;BME280;49105;46.046;10.760;2023-09-30T03:44:55;96352.66;;;13.55;80.55
63019;BME280;49105;46.046;10.760;2023-09-30T03:47:22;96346.25;;;13.56;80.98
63019;BME280;49105;46.046;10.760;2023-09-30T03:49:48;96342.75;;;13.60;80.87
63019;BME280;49105;46.046;10.760;2023-09-30T03:52:14;96347.84;;;13.62;80.81
63019;BME280;49105;46.046;10.760;2023-09-30T03:54:40;96346.28;;;13.51;80.89
63019;BME280;49105;46.046;10.760;2023-09-30T03:57:07;96336.28;;;13.27;80.73
63019;BME280;49105;46.046;10.760;2023-09-30T03:59:32;96336.53;;;13.31;81.21
63019;BME280;49105;46.046;10.760;2023-09-30T04:01:59;96326.66;;;13.36;80.75
63019;BME280;49105;46.046;10.760;2023-09-30T04:04:26;96325.59;;;13.37;80.86
63019;BME280;49105;46.046;10.760;2023-09-30T04:06:51;96330.66;;;13.39;80.83
63019;BME280;49105;46.046;10.760;2023-09-30T04:09:17;96338.41;;;13.25;80.26
63019;BME280;49105;46.046;10.760;2023-09-30T04:11:43;96334.44;;;13.07;80.88
63019;BME280;49105;46.046;10.760;2023-09-30T04:14:09;96348.28;;;13.04;80.96
63019;BME280;49105;46.046;10.760;2023-09-30T04:16:35;96347.47;;;13.09;81.11
63019;BME280;49105;46.046;10.760;2023-09-30T04:19:03;96341.34;;;13.13;81.41
63019;BME280;49105;46.046;10.760;2023-09-30T04:21:28;96340.53;;;13.18;81.24
63019;BME280;49105;46.046;10.760;2023-09-30T04:23:55;96333.06;;;13.20;80.92
63019;BME280;49105;46.046;10.760;2023-09-30T04:26:22;96341.34;;;13.24;81.37
63019;BME280;49105;46.046;10.760;2023-09-30T04:28:48;96340.03;;;13.06;80.79
63019;BME280;49105;46.046;10.760;2023-09-30T04:31:14;96345.94;;;12.93;80.83
63019;BME280;49105;46.046;10.760;2023-09-30T04:33:40;96345.94;;;12.93;81.37
63019;BME280;49105;46.046;10.760;2023-09-30T04:36:06;96346.19;;;12.96;81.22
63019;BME280;49105;46.046;10.760;2023-09-30T04:38:34;96352.56;;;13.00;81.05
63019;BME280;49105;46.046;10.760;2023-09-30T04:41:00;96347.78;;;12.97;81.42
63019;BME280;49105;46.046;10.760;2023-09-30T04:43:26;96343.78;;;12.95;81.78
63019;BME280;49105;46.046;10.760;2023-09-30T04:45:54;96341.66;;;13.02;81.46
63019;BME280;49105;46.046;10.760;2023-09-30T04:48:23;96344.28;;;13.07;81.46
63019;BME280;49105;46.046;10.760;2023-09-30T04:50:49;96344.50;;;13.15;81.27
63019;BME280;49105;46.046;10.760;2023-09-30T04:53:14;96341.09;;;13.10;81.13
63019;BME280;49105;46.046;10.760;2023-09-30T04:55:43;96348.63;;;12.77;80.56
63019;BME280;49105;46.046;10.760;2023-09-30T04:58:08;96349.16;;;12.69;81.28
63019;BME280;49105;46.046;10.760;2023-09-30T05:00:34;96353.91;;;12.77;81.63
63019;BME280;49105;46.046;10.760;2023-09-30T05:03:00;96351.00;;;12.79;81.43
63019;BME280;49105;46.046;10.760;2023-09-30T05:05:26;96348.09;;;12.80;81.66
63019;BME280;49105;46.046;10.760;2023-09-30T05:07:54;96349.38;;;12.83;81.59
63019;BME280;49105;46.046;10.760;2023-09-30T05:10:20;96357.63;;;12.86;81.15
63019;BME280;49105;46.046;10.760;2023-09-30T05:12:46;96354.16;;;12.91;81.43
63019;BME280;49105;46.046;10.760;2023-09-30T05:15:13;96359.72;;;12.95;81.58
63019;BME280;49105;46.046;10.760;2023-09-30T05:17:44;96357.63;;;12.97;81.68
63019;BME280;49105;46.046;10.760;2023-09-30T05:20:10;96362.94;;;12.97;81.83
63019;BME280;49105;46.046;10.760;2023-09-30T05:22:37;96370.59;;;13.03;81.00
63019;BME280;49105;46.046;10.760;2023-09-30T05:25:04;96371.66;;;13.07;81.00
63019;BME280;49105;46.046;10.760;2023-09-30T05:27:30;96380.41;;;13.08;81.51
63019;BME280;49105;46.046;10.760;2023-09-30T05:29:56;96378.28;;;13.10;81.35
63019;BME280;49105;46.046;10.760;2023-09-30T05:32:21;96385.19;;;13.11;81.27
63019;BME280;49105;46.046;10.760;2023-09-30T05:34:47;96379.88;;;13.11;80.87
63019;BME280;49105;46.046;10.760;2023-09-30T05:37:13;96382.25;;;13.12;81.57
63019;BME280;49105;46.046;10.760;2023-09-30T05:39:39;96395.31;;;13.04;81.07
63019;BME280;49105;46.046;10.760;2023-09-30T05:42:05;96391.34;;;13.01;81.34
63019;BME280;49105;46.046;10.760;2023-09-30T05:44:32;96388.94;;;13.05;81.08
63019;BME280;49105;46.046;10.760;2023-09-30T05:46:57;96388.63;;;13.16;80.76
63019;BME280;49105;46.046;10.760;2023-09-30T05:49:25;96386.78;;;13.22;81.17
63019;BME280;49105;46.046;10.760;2023-09-30T05:51:51;96384.41;;;13.26;81.13
63019;BME280;49105;46.046;10.760;2023-09-30T05:54:17;96381.47;;;13.12;80.57
63019;BME280;49105;46.046;10.760;2023-09-30T05:56:43;96369.28;;;12.96;80.73
63019;BME280;49105;46.046;10.760;2023-09-30T05:59:09;96374.06;;;12.99;81.49
63019;BME280;49105;46.046;10.760;2023-09-30T06:01:35;96364.25;;;13.04;81.41
63019;BME280;49105;46.046;10.760;2023-09-30T06:04:05;96363.91;;;13.16;81.41
63019;BME280;49105;46.046;10.760;2023-09-30T06:06:32;96361.81;;;13.23;81.10
63019;BME280;49105;46.046;10.760;2023-09-30T06:08:58;96367.13;;;13.18;80.86
63019;BME280;49105;46.046;10.760;2023-09-30T06:11:23;96364.50;;;12.98;81.07
63019;BME280;49105;46.046;10.760;2023-09-30T06:13:55;96363.97;;;12.90;80.78
63019;BME280;49105;46.046;10.760;2023-09-30T06:16:24;96370.09;;;12.86;81.20
63019;BME280;49105;46.046;10.760;2023-09-30T06:18:51;96376.22;;;12.86;81.50
63019;BME280;49105;46.046;10.760;2023-09-30T06:21:17;96369.84;;;12.93;81.55
63019;BME280;49105;46.046;10.760;2023-09-30T06:23:46;96379.91;;;12.96;81.48
63019;BME280;49105;46.046;10.760;2023-09-30T06:26:13;96377.50;;;12.99;81.10
63019;BME280;49105;46.046;10.760;2023-09-30T06:28:39;96382.56;;;13.06;81.16
63019;BME280;49105;46.046;10.760;2023-09-30T06:31:09;96375.63;;;13.15;81.44
63019;BME280;49105;46.046;10.760;2023-09-30T06:33:36;96371.59;;;13.33;80.82
63019;BME280;49105;46.046;10.760;2023-09-30T06:36:08;96373.41;;;13.48;80.76
63019;BME280;49105;46.046;10.760;2023-09-30T06:38:33;96377.88;;;13.57;80.98
63019;BME280;49105;46.046;10.760;2023-09-30T06:40:59;96378.13;;;13.61;80.30
63019;BME280;49105;46.046;10.760;2023-09-30T06:43:26;96384.50;;;13.70;80.24
63019;BME280;49105;46.046;10.760;2023-09-30T06:45:53;96382.28;;;13.82;80.60
63019;BME280;49105;46.046;10.760;2023-09-30T06:48:19;96384.09;;;13.92;80.20
63019;BME280;49105;46.046;10.760;2023-09-30T06:50:46;96390.97;;;14.03;79.83
63019;BME280;49105;46.046;10.760;2023-09-30T06:53:16;96387.44;;;14.13;79.54
63019;BME280;49105;46.046;10.760;2023-09-30T06:55:43;96390.00;;;14.28;79.85
63019;BME280;49105;46.046;10.760;2023-09-30T06:58:09;96393.13;;;14.35;79.76
63019;BME280;49105;46.046;10.760;2023-09-30T07:00:36;96390.16;;;14.42;79.75
63019;BME280;49105;46.046;10.760;2023-09-30T07:03:03;96390.19;;;14.37;79.63
63019;BME280;49105;46.046;10.760;2023-09-30T07:05:29;96389.13;;;14.38;80.06
63019;BME280;49105;46.046;10.760;2023-09-30T07:07:55;96395.53;;;14.37;79.85
63019;BME280;49105;46.046;10.760;2023-09-30T07:10:21;96398.66;;;14.44;80.10
63019;BME280;49105;46.046;10.760;2023-09-30T07:12:47;96399.69;;;14.48;79.42
63019;BME280;49105;46.046;10.760;2023-09-30T07:15:13;96398.38;;;14.51;79.68
63019;BME280;49105;46.046;10.760;2023-09-30T07:17:42;96403.63;;;14.61;79.87
63019;BME280;49105;46.046;10.760;2023-09-30T07:20:09;96405.16;;;14.67;79.55
63019;BME280;49105;46.046;10.760;2023-09-30T07:22:35;96398.16;;;14.76;79.51
63019;BME280;49105;46.046;10.760;2023-09-30T07:25:01;96396.22;;;14.87;79.42
63019;BME280;49105;46.046;10.760;2023-09-30T07:27:27;96397.41;;;15.00;79.22
63019;BME280;49105;46.046;10.760;2023-09-30T07:29:53;96398.91;;;15.11;79.12
63019;BME280;49105;46.046;10.760;2023-09-30T07:32:19;96394.53;;;15.20;78.91
63019;BME280;49105;46.046;10.760;2023-09-30T07:34:48;96391.25;;;15.28;78.61
63019;BME280;49105;46.046;10.760;2023-09-30T07:37:14;96385.38;;;15.31;78.55
63019;BME280;49105;46.046;10.760;2023-09-30T07:39:40;96404.03;;;15.31;78.62
63019;BME280;49105;46.046;10.760;2023-09-30T07:42:09;96405.31;;;15.34;78.61
63019;BME280;49105;46.046;10.760;2023-09-30T07:44:34;96407.13;;;15.38;78.84
63019;BME280;49105;46.046;10.760;2023-09-30T07:47:03;96404.13;;;15.45;78.87
63019;BME280;49105;46.046;10.760;2023-09-30T07:49:30;96404.38;;;15.49;78.84
63019;BME280;49105;46.046;10.760;2023-09-30T07:51:55;96412.59;;;15.52;78.83
63019;BME280;49105;46.046;10.760;2023-09-30T07:54:21;96401.28;;;15.60;78.58
63019;BME280;49105;46.046;10.760;2023-09-30T07:56:47;96410.50;;;15.73;78.43
63019;BME280;49105;46.046;10.760;2023-09-30T07:59:13;96414.13;;;15.82;78.33
63019;BME280;49105;46.046;10.760;2023-09-30T08:01:39;96412.41;;;15.92;77.73
63019;BME280;49105;46.046;10.760;2023-09-30T08:04:04;96411.25;;;15.98;77.71
63019;BME280;49105;46.046;10.760;2023-09-30T08:06:30;96415.16;;;16.05;77.54
63019;BME280;49105;46.046;10.760;2023-09-30T08:08:56;96409.53;;;16.07;77.24
63019;BME280;49105;46.046;10.760;2023-09-30T08:11:22;96412.91;;;16.12;77.33
63019;BME280;49105;46.046;10.760;2023-09-30T08:13:48;96404.19;;;16.07;77.69
63019;BME280;49105;46.046;10.760;2023-09-30T08:16:14;96404.19;;;16.07;77.89
63019;BME280;49105;46.046;10.760;2023-09-30T08:18:40;96397.63;;;16.18;78.06
63019;BME280;49105;46.046;10.760;2023-09-30T08:21:09;96382.03;;;16.25;77.62
63019;BME280;49105;46.046;10.760;2023-09-30T08:23:35;96384.03;;;16.33;77.16
63019;BME280;49105;46.046;10.760;2023-09-30T08:26:02;96380.69;;;16.42;76.83
63019;BME280;49105;46.046;10.760;2023-09-30T08:28:29;96379.47;;;16.53;76.71
63019;BME280;49105;46.046;10.760;2023-09-30T08:30:55;96374.53;;;16.60;76.30
63019;BME280;49105;46.046;10.760;2023-09-30T08:33:24;96364.69;;;16.74;75.88
63019;BME280;49105;46.046;10.760;2023-09-30T08:35:51;96372.03;;;16.82;75.49
63019;BME280;49105;46.046;10.760;2023-09-30T08:38:17;96368.50;;;16.87;75.37
63019;BME280;49105;46.046;10.760;2023-09-30T08:40:44;96362.84;;;16.89;74.98
63019;BME280;49105;46.046;10.760;2023-09-30T08:43:11;96367.00;;;16.95;75.18
63019;BME280;49105;46.046;10.760;2023-09-30T08:45:39;96367.31;;;17.07;75.32
63019;BME280;49105;46.046;10.760;2023-09-30T08:48:08;96370.91;;;17.16;74.76
63019;BME280;49105;46.046;10.760;2023-09-30T08:50:36;96369.25;;;17.20;74.86
63019;BME280;49105;46.046;10.760;2023-09-30T08:53:07;96362.59;;;17.31;74.41
63019;BME280;49105;46.046;10.760;2023-09-30T08:55:36;96361.88;;;17.40;74.53
63019;BME280;49105;46.046;10.760;2023-09-30T08:58:03;96359.31;;;17.48;74.16
63019;BME280;49105;46.046;10.760;2023-09-30T09:00:29;96347.63;;;17.58;74.03
63019;BME280;49105;46.046;10.760;2023-09-30T09:02:55;96338.38;;;17.64;73.72
63019;BME280;49105;46.046;10.760;2023-09-30T09:05:22;96341.44;;;17.71;73.41
63019;BME280;49105;46.046;10.760;2023-09-30T09:07:48;96343.13;;;17.81;73.38
63019;BME280;49105;46.046;10.760;2023-09-30T09:10:15;96334.19;;;17.85;73.50
63019;BME280;49105;46.046;10.760;2023-09-30T09:12:41;96333.00;;;17.92;73.24
63019;BME280;49105;46.046;10.760;2023-09-30T09:15:20;96333.00;;;17.92;72.89
63019;BME280;49105;46.046;10.760;2023-09-30T09:17:47;96338.72;;;17.99;72.93
63019;BME280;49105;46.046;10.760;2023-09-30T09:20:20;96335.81;;;18.09;72.71
63019;BME280;49105;46.046;10.760;2023-09-30T09:22:51;96339.47;;;18.13;72.16
63019;BME280;49105;46.046;10.760;2023-09-30T09:25:19;96330.69;;;18.21;71.46
63019;BME280;49105;46.046;10.760;2023-09-30T09:27:45;96338.00;;;18.29;71.04
63019;BME280;49105;46.046;10.760;2023-09-30T09:30:24;96342.66;;;18.38;70.81
63019;BME280;49105;46.046;10.760;2023-09-30T09:32:59;96361.19;;;18.48;70.41
63019;BME280;49105;46.046;10.760;2023-09-30T09:35:26;96360.91;;;18.58;69.70
63019;BME280;49105;46.046;10.760;2023-09-30T09:38:01;96351.94;;;18.63;69.01
63019;BME280;49105;46.046;10.760;2023-09-30T09:40:32;96344.31;;;18.70;69.23
63019;BME280;49105;46.046;10.760;2023-09-30T09:42:59;96333.94;;;18.77;69.07
63019;BME280;49105;46.046;10.760;2023-09-30T09:45:26;96322.28;;;18.81;68.22
63019;BME280;49105;46.046;10.760;2023-09-30T09:47:53;96319.28;;;18.83;67.64
63019;BME280;49105;46.046;10.760;2023-09-30T09:50:20;96316.47;;;18.88;68.19
63019;BME280;49105;46.046;10.760;2023-09-30T09:52:48;96319.81;;;18.94;68.20
63019;BME280;49105;46.046;10.760;2023-09-30T09:55:18;96325.41;;;19.06;68.14
63019;BME280;49105;46.046;10.760;2023-09-30T09:57:45;96321.03;;;19.19;67.91
63019;BME280;49105;46.046;10.760;2023-09-30T10:00:16;96315.19;;;19.25;68.04
63019;BME280;49105;46.046;10.760;2023-09-30T10:02:44;96321.69;;;19.33;68.07
63019;BME280;49105;46.046;10.760;2023-09-30T10:05:11;96307.31;;;19.38;67.65
63019;BME280;49105;46.046;10.760;2023-09-30T10:07:41;96304.63;;;19.38;67.64
63019;BME280;49105;46.046;10.760;2023-09-30T10:10:15;96306.88;;;19.44;67.29
63019;BME280;49105;46.046;10.760;2023-09-30T10:12:42;96298.84;;;19.53;66.88
63019;BME280;49105;46.046;10.760;2023-09-30T10:18:08;96298.59;;;19.63;67.24
63019;BME280;49105;46.046;10.760;2023-09-30T10:20:41;96294.16;;;19.67;67.26
63019;BME280;49105;46.046;10.760;2023-09-30T10:25:48;96284.66;;;19.78;66.93
63019;BME280;49105;46.046;10.760;2023-09-30T10:28:36;96282.94;;;19.82;66.58
63019;BME280;49105;46.046;10.760;2023-09-30T10:33:34;96273.13;;;19.95;66.51
63019;BME280;49105;46.046;10.760;2023-09-30T10:36:00;96268.84;;;20.12;66.44
63019;BME280;49105;46.046;10.760;2023-09-30T10:40:55;96262.34;;;20.39;66.21
63019;BME280;49105;46.046;10.760;2023-09-30T10:43:33;96255.84;;;20.48;66.20
63019;BME280;49105;46.046;10.760;2023-09-30T10:46:01;96259.19;;;20.54;66.27
63019;BME280;49105;46.046;10.760;2023-09-30T10:51:11;96243.31;;;20.61;65.88
63019;BME280;49105;46.046;10.760;2023-09-30T10:53:54;96240.00;;;20.64;65.97
63019;BME280;49105;46.046;10.760;2023-09-30T10:56:32;96243.63;;;20.68;66.01
63019;BME280;49105;46.046;10.760;2023-09-30T10:58:59;96239.16;;;20.72;66.11
63019;BME280;49105;46.046;10.760;2023-09-30T11:01:32;96232.31;;;20.84;65.67
63019;BME280;49105;46.046;10.760;2023-09-30T11:04:00;96224.34;;;20.96;65.08
63019;BME280;49105;46.046;10.760;2023-09-30T11:06:29;96218.59;;;21.06;64.81
63019;BME280;49105;46.046;10.760;2023-09-30T11:08:57;96209.53;;;21.11;64.70
63019;BME280;49105;46.046;10.760;2023-09-30T11:11:44;96213.63;;;21.17;64.05
63019;BME280;49105;46.046;10.760;2023-09-30T11:14:26;96204.84;;;21.28;63.93
63019;BME280;49105;46.046;10.760;2023-09-30T11:17:00;96212.09;;;21.37;64.13
63019;BME280;49105;46.046;10.760;2023-09-30T11:19:27;96205.41;;;21.43;62.68
63019;BME280;49105;46.046;10.760;2023-09-30T11:21:59;96195.63;;;21.59;62.19
63019;BME280;49105;46.046;10.760;2023-09-30T11:24:25;96199.34;;;21.67;62.72
63019;BME280;49105;46.046;10.760;2023-09-30T11:26:53;96191.41;;;21.70;62.25
63019;BME280;49105;46.046;10.760;2023-09-30T11:29:21;96191.97;;;21.76;62.62
63019;BME280;49105;46.046;10.760;2023-09-30T11:31:48;96195.94;;;21.78;61.98
63019;BME280;49105;46.046;10.760;2023-09-30T11:34:17;96199.88;;;21.81;61.89
63019;BME280;49105;46.046;10.760;2023-09-30T11:36:48;96185.53;;;21.89;61.87
63019;BME280;49105;46.046;10.760;2023-09-30T11:39:41;96187.47;;;22.01;60.80
63019;BME280;49105;46.046;10.760;2023-09-30T11:42:17;96184.84;;;22.13;60.39
63019;BME280;49105;46.046;10.760;2023-09-30T11:44:47;96186.56;;;22.18;60.61
63019;BME280;49105;46.046;10.760;2023-09-30T11:47:13;96182.84;;;22.22;60.58
63019;BME280;49105;46.046;10.760;2023-09-30T11:49:42;96183.66;;;22.23;60.83
63019;BME280;49105;46.046;10.760;2023-09-30T11:52:13;96174.44;;;22.24;60.25
63019;BME280;49105;46.046;10.760;2023-09-30T11:54:44;96173.66;;;22.23;60.18
63019;BME280;49105;46.046;10.760;2023-09-30T11:57:11;96165.69;;;22.27;60.28
63019;BME280;49105;46.046;10.760;2023-09-30T11:59:41;96172.63;;;22.28;60.37
63019;BME280;49105;46.046;10.760;2023-09-30T12:02:08;96170.50;;;22.34;60.22
63019;BME280;49105;46.046;10.760;2023-09-30T12:04:38;96171.88;;;22.40;60.04
63019;BME280;49105;46.046;10.760;2023-09-30T12:07:04;96175.25;;;22.49;59.29
63019;BME280;49105;46.046;10.760;2023-09-30T12:09:33;96174.34;;;22.57;59.33
63019;BME280;49105;46.046;10.760;2023-09-30T12:12:00;96163.22;;;22.59;58.69
63019;BME280;49105;46.046;10.760;2023-09-30T12:14:26;96158.72;;;22.63;57.21
63019;BME280;49105;46.046;10.760;2023-09-30T12:16:51;96153.25;;;22.71;56.48
63019;BME280;49105;46.046;10.760;2023-09-30T12:19:18;96149.53;;;22.76;57.25
63019;BME280;49105;46.046;10.760;2023-09-30T12:21:47;96141.88;;;22.78;57.28
63019;BME280;49105;46.046;10.760;2023-09-30T12:24:17;96145.34;;;22.78;57.77
63019;BME280;49105;46.046;10.760;2023-09-30T12:26:46;96137.03;;;22.84;57.06
63019;BME280;49105;46.046;10.760;2023-09-30T12:29:16;96134.00;;;22.85;56.91
63019;BME280;49105;46.046;10.760;2023-09-30T12:31:45;96129.16;;;22.91;56.75
63019;BME280;49105;46.046;10.760;2023-09-30T12:34:13;96125.91;;;22.97;56.66
63019;BME280;49105;46.046;10.760;2023-09-30T12:36:39;96122.97;;;23.02;56.69
63019;BME280;49105;46.046;10.760;2023-09-30T12:39:05;96129.25;;;23.07;56.91
63019;BME280;49105;46.046;10.760;2023-09-30T12:41:42;96134.31;;;23.08;57.10
63019;BME280;49105;46.046;10.760;2023-09-30T12:44:10;96138.25;;;23.11;56.03
63019;BME280;49105;46.046;10.760;2023-09-30T12:46:37;96137.22;;;23.15;56.08
63019;BME280;49105;46.046;10.760;2023-09-30T12:49:05;96134.38;;;23.24;55.05
63019;BME280;49105;46.046;10.760;2023-09-30T12:51:31;96133.19;;;23.21;54.71
63019;BME280;49105;46.046;10.760;2023-09-30T12:53:58;96130.81;;;23.20;54.29
63019;BME280;49105;46.046;10.760;2023-09-30T12:56:24;96134.75;;;23.22;54.55
63019;BME280;49105;46.046;10.760;2023-09-30T12:58:50;96134.06;;;23.25;53.99
63019;BME280;49105;46.046;10.760;2023-09-30T13:01:16;96130.44;;;23.34;53.92
63019;BME280;49105;46.046;10.760;2023-09-30T13:03:45;96134.34;;;23.36;54.04
63019;BME280;49105;46.046;10.760;2023-09-30T13:06:12;96135.84;;;23.34;52.62
63019;BME280;49105;46.046;10.760;2023-09-30T13:08:38;96133.47;;;23.32;52.55